createdAt,value
2023-02-27T00:00:14.886Z,72.40
2023-02-27T00:02:43.358Z,72.70
2023-02-27T00:05:10.725Z,72.80
2023-02-27T00:07:38.337Z,72.60
2023-02-27T00:10:06.734Z,72.50
2023-02-27T00:12:37.677Z,72.70
2023-02-27T00:15:19.597Z,72.70
2023-02-27T00:17:47.492Z,73.00
2023-02-27T00:20:15.130Z,73.40
2023-02-27T00:22:42.474Z,73.30
2023-02-27T00:25:10.100Z,73.70
2023-02-27T00:27:37.042Z,73.80
2023-02-27T00:30:09.501Z,73.90
2023-02-27T00:32:36.784Z,74.40
2023-02-27T00:35:08.536Z,74.40
2023-02-27T00:37:35.487Z,74.50
2023-02-27T00:40:02.169Z,74.70
2023-02-27T00:42:30.785Z,74.80
2023-02-27T00:44:57.636Z,75.10
2023-02-27T00:47:24.362Z,75.40
2023-02-27T00:49:50.988Z,75.30
2023-02-27T00:52:17.553Z,75.50
2023-02-27T00:54:44.450Z,75.90
2023-02-27T00:57:11.100Z,76.10
2023-02-27T00:59:37.717Z,76.20
2023-02-27T01:02:04.440Z,76.50
2023-02-27T01:04:31.024Z,76.90
2023-02-27T01:06:57.625Z,77.00
2023-02-27T01:09:25.016Z,77.20
2023-02-27T01:11:52.113Z,77.10
2023-02-27T01:14:19.008Z,77.20
2023-02-27T01:16:46.120Z,77.20
2023-02-27T01:19:12.735Z,77.10
2023-02-27T01:21:41.921Z,77.10
2023-02-27T01:24:09.510Z,76.90
2023-02-27T01:26:36.509Z,77.00
2023-02-27T01:29:06.191Z,77.20
2023-02-27T01:31:33.339Z,77.20
2023-02-27T01:34:00.216Z,77.40
2023-02-27T01:36:26.882Z,77.60
2023-02-27T01:38:53.513Z,77.70
2023-02-27T01:41:20.302Z,77.90
2023-02-27T01:44:00.856Z,78.10
2023-02-27T01:46:29.765Z,78.10
2023-02-27T01:49:00.306Z,78.30
2023-02-27T01:51:31.259Z,78.80
2023-02-27T01:53:59.196Z,79.10
2023-02-27T01:56:29.540Z,79.30
2023-02-27T01:59:03.477Z,79.50
2023-02-27T02:01:32.921Z,79.50
2023-02-27T02:04:33.145Z,79.50
2023-02-27T02:07:09.253Z,79.70
2023-02-27T02:09:47.217Z,79.80
2023-02-27T02:12:16.115Z,79.80
2023-02-27T02:14:42.842Z,79.70
2023-02-27T02:17:09.398Z,79.60
2023-02-27T02:19:56.080Z,79.60
2023-02-27T02:22:52.113Z,79.60
2023-02-27T02:26:07.644Z,79.60
2023-02-27T02:29:08.042Z,79.40
2023-02-27T02:31:59.522Z,80.20
2023-02-27T02:35:00.426Z,79.30
2023-02-27T02:37:54.488Z,79.20
2023-02-27T02:40:29.025Z,79.30
2023-02-27T02:43:04.604Z,79.30
2023-02-27T02:45:53.249Z,79.50
2023-02-27T02:48:32.954Z,79.50
2023-02-27T02:51:31.975Z,79.60
2023-02-27T02:54:13.033Z,79.70
2023-02-27T02:56:48.873Z,79.80
2023-02-27T02:59:33.957Z,80.00
2023-02-27T03:02:04.701Z,80.10
2023-02-27T03:04:42.998Z,81.00
2023-02-27T03:07:21.095Z,80.10
2023-02-27T03:09:52.978Z,80.20
2023-02-27T03:12:23.612Z,80.40
2023-02-27T03:15:05.006Z,80.50
2023-02-27T03:17:43.612Z,80.70
2023-02-27T03:20:37.912Z,80.80
2023-02-27T03:23:11.357Z,80.90
2023-02-27T03:25:39.044Z,81.20
2023-02-27T03:28:13.685Z,81.30
2023-02-27T03:30:49.652Z,81.70
2023-02-27T03:33:24.523Z,82.00
2023-02-27T03:36:20.083Z,82.20
2023-02-27T03:38:55.522Z,82.40
2023-02-27T03:41:31.304Z,82.70
2023-02-27T03:44:10.898Z,83.00
2023-02-27T03:46:38.227Z,83.30
2023-02-27T03:49:05.265Z,83.40
2023-02-27T03:51:32.612Z,83.60
2023-02-27T03:54:08.341Z,83.50
2023-02-27T03:56:41.148Z,83.60
2023-02-27T03:59:08.231Z,83.70
2023-02-27T04:01:35.145Z,83.90
2023-02-27T04:04:10.163Z,83.90
2023-02-27T04:06:57.896Z,84.00
2023-02-27T04:09:30.509Z,84.10
2023-02-27T04:12:19.739Z,84.20
2023-02-27T04:15:06.070Z,84.40
2023-02-27T04:17:55.016Z,84.50
2023-02-27T04:20:43.240Z,84.60
2023-02-27T04:23:38.982Z,84.60
2023-02-27T04:26:24.138Z,84.70
2023-02-27T04:29:23.218Z,84.80
2023-02-27T04:32:02.761Z,84.80
2023-02-27T04:34:34.088Z,84.80
2023-02-27T04:37:11.321Z,84.80
2023-02-27T04:39:46.501Z,84.80
2023-02-27T04:42:20.767Z,84.70
2023-02-27T04:44:49.078Z,85.00
2023-02-27T04:47:17.825Z,85.10
2023-02-27T04:49:50.212Z,85.30
2023-02-27T04:52:37.241Z,85.40
2023-02-27T04:55:11.882Z,85.50
2023-02-27T04:57:43.958Z,85.70
2023-02-27T05:00:13.837Z,85.70
2023-02-27T05:02:48.707Z,86.00
2023-02-27T05:05:21.262Z,86.00
2023-02-27T05:07:57.568Z,86.30
2023-02-27T05:10:32.048Z,86.50
2023-02-27T05:13:04.344Z,86.70
2023-02-27T05:15:37.082Z,87.00
2023-02-27T05:18:12.408Z,87.10
2023-02-27T05:20:42.181Z,87.20
2023-02-27T05:23:17.460Z,87.20
2023-02-27T05:26:14.213Z,87.30
2023-02-27T05:29:01.010Z,87.50
2023-02-27T05:32:05.137Z,87.70
2023-02-27T05:34:41.333Z,87.80
2023-02-27T05:37:22.988Z,87.90
2023-02-27T05:39:53.220Z,88.00
2023-02-27T05:42:28.551Z,88.00
2023-02-27T05:45:00.403Z,88.00
2023-02-27T05:47:31.283Z,88.10
2023-02-27T05:50:08.323Z,88.20
2023-02-27T05:52:36.363Z,88.30
2023-02-27T05:55:20.205Z,88.30
2023-02-27T05:58:05.938Z,88.40
2023-02-27T06:00:44.982Z,88.70
2023-02-27T06:03:12.599Z,88.80
2023-02-27T06:05:42.170Z,88.80
2023-02-27T06:08:10.222Z,88.60
2023-02-27T06:10:37.888Z,88.50
2023-02-27T06:13:04.526Z,88.50
2023-02-27T06:15:31.145Z,88.50
2023-02-27T06:17:57.918Z,88.50
2023-02-27T06:20:24.463Z,88.50
2023-02-27T06:22:51.226Z,88.50
2023-02-27T06:25:17.918Z,88.40
2023-02-27T06:27:44.582Z,88.40
2023-02-27T06:30:11.861Z,88.40
2023-02-27T06:32:38.516Z,88.40
2023-02-27T06:35:06.400Z,88.30
2023-02-27T06:37:33.350Z,88.40
2023-02-27T06:39:59.946Z,88.50
2023-02-27T06:42:26.559Z,88.70
2023-02-27T06:44:53.237Z,88.80
2023-02-27T06:47:19.916Z,88.90
2023-02-27T06:49:46.566Z,89.00
2023-02-27T06:52:13.224Z,89.10
2023-02-27T06:54:40.015Z,89.30
2023-02-27T06:57:06.676Z,89.20
2023-02-27T06:59:33.289Z,89.20
2023-02-27T07:02:00.602Z,89.30
2023-02-27T07:04:27.272Z,89.60
2023-02-27T07:07:32.901Z,89.70
2023-02-27T07:09:40.845Z,89.90
2023-02-27T07:12:07.970Z,90.10
2023-02-27T07:14:35.143Z,90.20
2023-02-27T07:17:04.448Z,90.10
2023-02-27T07:19:33.562Z,90.10
2023-02-27T07:22:00.187Z,90.10
2023-02-27T07:24:26.845Z,90.00
2023-02-27T07:26:53.970Z,89.90
2023-02-27T07:29:20.625Z,90.00
2023-02-27T07:31:47.373Z,90.00
2023-02-27T07:34:15.729Z,90.10
2023-02-27T07:36:42.453Z,90.10
2023-02-27T07:39:10.618Z,90.20
2023-02-27T07:41:37.367Z,90.20
2023-02-27T07:44:03.983Z,90.60
2023-02-27T07:46:31.143Z,91.70
2023-02-27T07:48:58.022Z,91.80
2023-02-27T07:51:24.639Z,90.30
2023-02-27T07:53:51.259Z,85.30
2023-02-27T07:56:17.881Z,81.70
2023-02-27T07:58:44.503Z,79.10
2023-02-27T08:01:11.135Z,70.00
2023-02-27T08:03:37.760Z,69.10
2023-02-27T08:06:04.435Z,69.10
2023-02-27T08:08:31.145Z,68.20
2023-02-27T08:10:58.496Z,64.70
2023-02-27T08:13:42.638Z,54.80
2023-02-27T08:16:12.325Z,51.80
2023-02-27T08:18:39.156Z,54.20
2023-02-27T08:21:06.134Z,49.60
2023-02-27T08:23:34.474Z,47.40
2023-02-27T08:26:02.201Z,46.10
2023-02-27T08:28:29.384Z,48.00
2023-02-27T08:30:56.493Z,42.90
2023-02-27T08:33:23.861Z,41.10
2023-02-27T08:35:50.618Z,40.60
2023-02-27T08:38:17.291Z,37.20
2023-02-27T08:40:43.963Z,39.10
2023-02-27T08:43:10.612Z,36.10
2023-02-27T08:45:37.378Z,40.70
2023-02-27T08:48:04.173Z,42.50
2023-02-27T08:50:30.896Z,34.10
2023-02-27T08:52:57.592Z,36.60
2023-02-27T08:55:24.283Z,38.60
2023-02-27T08:57:50.975Z,36.40
2023-02-27T09:00:18.131Z,34.20
2023-02-27T09:02:45.001Z,37.10
2023-02-27T09:05:11.700Z,34.90
2023-02-27T09:07:38.341Z,29.60
2023-02-27T09:10:07.136Z,29.20
2023-02-27T09:12:33.762Z,30.00
2023-02-27T09:15:00.650Z,29.50
2023-02-27T09:17:27.356Z,26.90
2023-02-27T09:19:55.958Z,26.10
2023-02-27T09:22:24.421Z,27.30
2023-02-27T09:24:51.086Z,27.50
2023-02-27T09:27:17.717Z,25.50
2023-02-27T09:29:44.349Z,25.70
2023-02-27T09:32:11.199Z,21.00
2023-02-27T09:34:37.945Z,20.00
2023-02-27T09:37:04.703Z,23.30
2023-02-27T09:39:31.470Z,22.40
2023-02-27T09:42:04.848Z,20.30
2023-02-27T09:44:47.163Z,20.10
2023-02-27T09:47:39.646Z,21.30
2023-02-27T09:50:40.480Z,22.00
2023-02-27T09:53:18.880Z,26.20
2023-02-27T09:55:46.559Z,27.80
2023-02-27T09:58:50.167Z,30.50
2023-02-27T10:01:28.605Z,26.80
2023-02-27T10:04:01.409Z,24.50
2023-02-27T10:06:38.161Z,24.90
2023-02-27T10:09:19.782Z,22.20
2023-02-27T10:12:07.033Z,21.80
2023-02-27T10:14:43.067Z,24.20
2023-02-27T10:17:24.591Z,25.90
2023-02-27T10:19:52.892Z,26.50
2023-02-27T10:22:30.451Z,26.10
2023-02-27T10:25:03.014Z,24.40
2023-02-27T10:27:30.823Z,24.80
2023-02-27T10:30:29.304Z,26.70
2023-02-27T10:33:08.946Z,25.50
2023-02-27T10:35:38.928Z,24.60
2023-02-27T10:38:17.926Z,28.10
2023-02-27T10:40:45.355Z,27.60
2023-02-27T10:43:16.371Z,29.20
2023-02-27T10:45:43.838Z,29.80
2023-02-27T10:48:12.421Z,25.10
2023-02-27T10:50:42.499Z,25.30
2023-02-27T10:53:27.281Z,26.80
2023-02-27T10:56:22.712Z,27.00
2023-02-27T10:59:04.109Z,27.70
2023-02-27T11:01:46.456Z,28.20
2023-02-27T11:04:14.422Z,31.80
2023-02-27T11:06:42.273Z,31.10
2023-02-27T11:09:13.606Z,31.30
2023-02-27T11:11:40.464Z,32.70
2023-02-27T11:14:19.511Z,32.30
2023-02-27T11:16:49.768Z,29.70
2023-02-27T11:19:39.196Z,30.90
2023-02-27T11:22:20.813Z,31.90
2023-02-27T11:24:48.187Z,33.30
2023-02-27T11:27:21.995Z,33.80
2023-02-27T11:30:04.672Z,30.60
2023-02-27T11:32:41.118Z,29.60
2023-02-27T11:35:36.663Z,28.00
2023-02-27T11:38:06.563Z,27.90
2023-02-27T11:40:39.756Z,29.70
2023-02-27T11:43:19.717Z,29.60
2023-02-27T11:46:46.879Z,28.40
2023-02-27T11:49:03.840Z,29.60
2023-02-27T11:51:43.105Z,31.00
2023-02-27T11:54:36.172Z,30.70
2023-02-27T11:57:24.940Z,29.20
2023-02-27T12:00:07.822Z,29.20
2023-02-27T12:03:13.376Z,30.50
2023-02-27T12:05:48.063Z,33.10
2023-02-27T12:08:18.339Z,34.60
2023-02-27T12:10:55.623Z,30.70
2023-02-27T12:13:33.499Z,32.60
2023-02-27T12:16:27.112Z,30.30
2023-02-27T12:18:59.330Z,29.20
2023-02-27T12:21:31.984Z,29.40
2023-02-27T12:24:09.500Z,31.30
2023-02-27T12:26:43.151Z,30.80
2023-02-27T12:29:30.511Z,31.30
2023-02-27T12:32:12.357Z,33.80
2023-02-27T12:34:54.027Z,33.30
2023-02-27T12:37:27.532Z,34.00
2023-02-27T12:39:58.273Z,33.30
2023-02-27T12:42:43.798Z,31.30
2023-02-27T12:45:26.328Z,30.80
2023-02-27T12:48:27.217Z,32.40
2023-02-27T12:51:17.400Z,32.50
2023-02-27T12:54:01.177Z,34.00
2023-02-27T12:56:47.478Z,34.00
2023-02-27T12:59:20.078Z,34.90
2023-02-27T13:01:53.221Z,36.30
2023-02-27T13:04:34.973Z,35.20
2023-02-27T13:07:08.457Z,36.00
2023-02-27T13:09:47.556Z,35.50
2023-02-27T13:12:14.094Z,33.80
2023-02-27T13:14:49.122Z,34.30
2023-02-27T13:17:25.764Z,33.30
2023-02-27T13:19:59.724Z,32.50
2023-02-27T13:22:32.391Z,31.60
2023-02-27T13:25:04.565Z,32.30
2023-02-27T13:27:38.763Z,33.90
2023-02-27T13:30:05.425Z,34.10
2023-02-27T13:32:44.033Z,36.60
2023-02-27T13:35:25.676Z,35.10
2023-02-27T13:38:05.297Z,32.70
2023-02-27T13:40:34.238Z,31.60
2023-02-27T13:43:04.272Z,31.30
2023-02-27T13:45:54.330Z,30.70
2023-02-27T13:48:39.975Z,32.50
2023-02-27T13:51:10.779Z,33.50
2023-02-27T13:53:38.429Z,32.90
2023-02-27T13:56:23.748Z,33.70
2023-02-27T13:58:51.109Z,33.70
2023-02-27T14:01:28.565Z,34.10
2023-02-27T14:03:59.468Z,34.10
2023-02-27T14:06:28.287Z,31.40
2023-02-27T14:09:12.467Z,31.10
2023-02-27T14:11:50.738Z,29.30
2023-02-27T14:14:39.752Z,27.50
2023-02-27T14:17:07.014Z,28.20
2023-02-27T14:19:42.978Z,29.10
2023-02-27T14:22:12.332Z,30.10
2023-02-27T14:25:01.732Z,31.40
2023-02-27T14:27:44.325Z,30.80
2023-02-27T14:30:40.762Z,32.50
2023-02-27T14:33:16.752Z,30.60
2023-02-27T14:35:58.487Z,29.40
2023-02-27T14:38:26.964Z,30.80
2023-02-27T14:41:26.002Z,31.20
2023-02-27T14:43:55.984Z,31.40
2023-02-27T14:46:36.262Z,32.10
2023-02-27T14:49:06.911Z,33.30
2023-02-27T14:51:36.957Z,34.20
2023-02-27T14:54:07.260Z,34.90
2023-02-27T14:56:34.725Z,35.60
2023-02-27T14:59:04.666Z,34.50
2023-02-27T15:01:35.801Z,34.80
2023-02-27T15:04:04.883Z,34.20
2023-02-27T15:06:46.356Z,34.20
2023-02-27T15:09:35.730Z,34.80
2023-02-27T15:12:04.818Z,35.00
2023-02-27T15:14:37.451Z,34.00
2023-02-27T15:17:14.633Z,34.00
2023-02-27T15:19:47.740Z,32.90
2023-02-27T15:22:36.209Z,31.60
2023-02-27T15:25:07.661Z,32.50
2023-02-27T15:27:37.598Z,33.30
2023-02-27T15:30:05.263Z,34.20
2023-02-27T15:32:36.357Z,34.60
2023-02-27T15:35:22.317Z,35.50
2023-02-27T15:37:54.879Z,36.30
2023-02-27T15:40:28.033Z,34.90
2023-02-27T15:42:55.888Z,35.00
2023-02-27T15:45:27.356Z,36.30
2023-02-27T15:47:54.864Z,36.80
2023-02-27T15:50:42.890Z,36.80
2023-02-27T15:53:11.997Z,36.60
2023-02-27T15:55:45.308Z,36.50
2023-02-27T15:58:33.791Z,36.70
2023-02-27T16:01:12.356Z,36.90
2023-02-27T16:03:45.146Z,37.20
2023-02-27T16:06:18.147Z,38.10
2023-02-27T16:08:52.702Z,37.40
2023-02-27T16:11:21.617Z,37.80
2023-02-27T16:13:48.561Z,38.40
2023-02-27T16:16:21.203Z,39.10
2023-02-27T16:18:52.983Z,39.70
2023-02-27T16:21:24.720Z,40.40
2023-02-27T16:23:51.545Z,40.80
2023-02-27T16:26:36.503Z,40.40
2023-02-27T16:29:31.507Z,41.30
2023-02-27T16:31:58.559Z,40.90
2023-02-27T16:34:44.723Z,41.30
2023-02-27T16:37:35.938Z,42.20
2023-02-27T16:40:08.962Z,43.10
2023-02-27T16:42:35.661Z,44.10
2023-02-27T16:45:02.323Z,44.50
2023-02-27T16:47:29.221Z,44.90
2023-02-27T16:49:56.121Z,45.40
2023-02-27T16:52:22.985Z,44.90
2023-02-27T16:54:50.057Z,44.60
2023-02-27T16:57:17.688Z,45.20
2023-02-27T16:59:44.401Z,46.30
2023-02-27T17:02:14.445Z,47.00
2023-02-27T17:04:46.687Z,47.60
2023-02-27T17:07:17.990Z,48.40
2023-02-27T17:09:46.322Z,49.20
2023-02-27T17:12:13.623Z,49.70
2023-02-27T17:14:40.299Z,50.10
2023-02-27T17:17:07.202Z,50.60
2023-02-27T17:19:34.249Z,51.00
2023-02-27T17:22:00.901Z,51.40
2023-02-27T17:24:27.581Z,51.30
2023-02-27T17:26:54.443Z,51.80
2023-02-27T17:29:21.828Z,52.10
2023-02-27T17:31:48.857Z,52.30
2023-02-27T17:34:16.750Z,52.50
2023-02-27T17:36:43.996Z,52.70
2023-02-27T17:39:13.805Z,52.80
2023-02-27T17:41:41.855Z,52.90
2023-02-27T17:44:11.374Z,53.20
2023-02-27T17:46:39.561Z,53.50
2023-02-27T17:49:06.678Z,53.70
2023-02-27T17:51:33.678Z,53.90
2023-02-27T17:54:05.347Z,54.20
2023-02-27T17:56:32.422Z,54.50
2023-02-27T17:58:59.311Z,54.70
2023-02-27T18:01:27.019Z,54.90
2023-02-27T18:03:54.805Z,55.60
2023-02-27T18:06:23.165Z,56.00
2023-02-27T18:08:50.091Z,56.20
2023-02-27T18:11:19.646Z,56.40
2023-02-27T18:13:47.442Z,56.80
2023-02-27T18:16:15.093Z,57.30
2023-02-27T18:18:42.819Z,57.80
2023-02-27T18:21:14.936Z,58.00
2023-02-27T18:23:42.456Z,58.10
2023-02-27T18:26:28.997Z,58.60
2023-02-27T18:29:00.133Z,59.00
2023-02-27T18:31:36.436Z,59.60
2023-02-27T18:34:03.663Z,60.00
2023-02-27T18:36:31.517Z,60.50
2023-02-27T18:38:59.311Z,60.60
2023-02-27T18:41:26.439Z,61.00
2023-02-27T18:43:53.140Z,61.10
2023-02-27T18:46:20.667Z,61.50
2023-02-27T18:48:47.553Z,61.50
2023-02-27T18:51:15.586Z,61.50
2023-02-27T18:53:45.848Z,61.60
2023-02-27T18:56:13.988Z,62.00
2023-02-27T18:58:40.849Z,62.20
2023-02-27T19:01:08.430Z,62.20
2023-02-27T19:03:36.069Z,62.30
2023-02-27T19:06:03.461Z,62.20
2023-02-27T19:08:30.834Z,62.10
2023-02-27T19:10:58.045Z,62.20
2023-02-27T19:13:26.391Z,62.40
2023-02-27T19:15:53.720Z,62.30
2023-02-27T19:18:20.568Z,62.50
2023-02-27T19:20:47.644Z,62.60
2023-02-27T19:23:14.375Z,62.80
2023-02-27T19:25:41.971Z,63.00
2023-02-27T19:28:11.023Z,63.10
2023-02-27T19:30:39.624Z,63.30
2023-02-27T19:33:06.477Z,63.30
2023-02-27T19:35:33.196Z,63.60
2023-02-27T19:37:59.889Z,63.30
2023-02-27T19:40:27.207Z,62.60
2023-02-27T19:42:53.899Z,62.20
2023-02-27T19:45:20.627Z,61.60
2023-02-27T19:47:47.295Z,61.30
2023-02-27T19:50:14.126Z,61.00
2023-02-27T19:52:40.844Z,60.00
2023-02-27T19:55:08.065Z,59.60
2023-02-27T19:57:36.801Z,59.40
2023-02-27T20:00:10.113Z,59.20
2023-02-27T20:02:36.827Z,58.90
2023-02-27T20:05:03.642Z,59.00
2023-02-27T20:07:31.995Z,59.00
2023-02-27T20:09:58.895Z,59.20
2023-02-27T20:12:25.992Z,59.40
2023-02-27T20:14:52.691Z,59.60
2023-02-27T20:17:19.360Z,59.60
2023-02-27T20:19:46.180Z,59.80
2023-02-27T20:22:13.546Z,59.80
2023-02-27T20:24:40.295Z,60.20
2023-02-27T20:27:07.282Z,60.30
2023-02-27T20:29:34.042Z,60.50
2023-02-27T20:32:01.168Z,60.40
2023-02-27T20:34:28.001Z,60.80
2023-02-27T20:36:56.027Z,61.10
2023-02-27T20:39:23.934Z,61.90
2023-02-27T20:41:50.971Z,61.90
2023-02-27T20:44:18.221Z,62.20
2023-02-27T20:46:45.554Z,62.40
2023-02-27T20:49:16.833Z,62.80
2023-02-27T20:51:44.114Z,64.10
2023-02-27T20:54:15.404Z,63.80
2023-02-27T20:56:43.109Z,63.90
2023-02-27T20:59:15.075Z,64.00
2023-02-27T21:01:43.328Z,64.10
2023-02-27T21:04:10.329Z,64.60
2023-02-27T21:06:37.154Z,64.60
2023-02-27T21:09:06.352Z,65.30
2023-02-27T21:11:34.013Z,65.80
2023-02-27T21:14:09.695Z,66.00
2023-02-27T21:16:38.099Z,66.50
2023-02-27T21:19:05.231Z,66.90
2023-02-27T21:21:34.622Z,67.10
2023-02-27T21:24:01.726Z,67.50
2023-02-27T21:26:35.574Z,68.00
2023-02-27T21:29:06.863Z,68.30
2023-02-27T21:31:35.022Z,68.60
2023-02-27T21:34:03.759Z,68.80
2023-02-27T21:36:33.235Z,68.90
2023-02-27T21:39:02.334Z,68.90
2023-02-27T21:41:29.547Z,69.60
2023-02-27T21:44:01.326Z,69.80
2023-02-27T21:46:29.194Z,69.70
2023-02-27T21:48:56.595Z,69.80
2023-02-27T21:51:38.401Z,69.80
2023-02-27T21:54:07.264Z,69.80
2023-02-27T21:56:34.092Z,69.60
2023-02-27T21:59:01.724Z,69.30
2023-02-27T22:01:29.067Z,69.20
2023-02-27T22:03:56.610Z,69.20
2023-02-27T22:06:25.245Z,67.20
2023-02-27T22:08:56.160Z,65.00
2023-02-27T22:11:24.308Z,64.20
2023-02-27T22:13:51.151Z,63.60
2023-02-27T22:16:18.792Z,63.00
2023-02-27T22:18:45.954Z,62.60
2023-02-27T22:21:17.101Z,61.40
2023-02-27T22:23:45.212Z,59.80
2023-02-27T22:26:14.475Z,59.20
2023-02-27T22:28:41.666Z,59.00
2023-02-27T22:31:12.976Z,59.10
2023-02-27T22:33:41.005Z,59.20
2023-02-27T22:36:29.157Z,59.40
2023-02-27T22:38:57.010Z,59.70
2023-02-27T22:41:29.094Z,59.80
2023-02-27T22:43:56.444Z,59.80
2023-02-27T22:46:28.672Z,59.70
2023-02-27T22:49:04.025Z,59.70
2023-02-27T22:51:31.281Z,59.70
2023-02-27T22:54:00.597Z,59.80
2023-02-27T22:56:27.698Z,59.90
2023-02-27T22:58:54.407Z,59.90
2023-02-27T23:01:28.771Z,60.10
2023-02-27T23:03:57.974Z,60.10
2023-02-27T23:06:28.018Z,59.70
2023-02-27T23:08:54.706Z,59.90
2023-02-27T23:11:21.778Z,59.80
2023-02-27T23:13:48.620Z,59.80
2023-02-27T23:16:15.690Z,59.90
2023-02-27T23:18:48.306Z,59.50
2023-02-27T23:21:17.274Z,59.10
2023-02-27T23:23:44.592Z,58.00
2023-02-27T23:26:12.057Z,57.40
2023-02-27T23:28:39.176Z,56.90
2023-02-27T23:31:06.891Z,56.90
2023-02-27T23:33:34.082Z,56.40
2023-02-27T23:36:03.470Z,55.50
2023-02-27T23:38:30.640Z,55.00
2023-02-27T23:40:57.314Z,54.70
2023-02-27T23:43:42.570Z,54.30
2023-02-27T23:46:11.861Z,54.10
2023-02-27T23:48:38.870Z,53.20
2023-02-27T23:51:07.209Z,53.20
2023-02-27T23:53:35.624Z,53.90
2023-02-27T23:56:12.235Z,53.20
2023-02-27T23:58:38.921Z,53.40
